Terminal Aerodrome Forecast
Issued by NWS

Home | Current Version | Previous Version | Text Only | Print | Product List | Glossary On
Versions: 1 2 3 4 5 6 7 8 9 10 11 12
000
FTUS42 KTBW 282322
TAFRSW
TAF
KRSW 282322Z 2900/2924 30009KT P6SM FEW070
     FM290300 VRB03KT P6SM SKC
     FM290900 VRB03KT 6SM BR SKC
     FM291300 16005KT P6SM FEW040
     FM291800 20007KT P6SM FEW050 FEW250
     FM292200 24007KT P6SM FEW060 SCT250=

USA.gov is the U.S. government's official web portal to all federal, state and local government web resources and services.